Time;durP1;ratioP1;P1;durP2;ratioP2;P2;SDS_P1;SDS_P2;PMS_P1;PMS_P2;Temp;Humidity;BMP_temperature;BMP_pressure;BME280_temperature;BME280_humidity;BME280_pressure;Samples;Min_cycle;Max_cycle;Signal;HPM_P1;HPM_P2
2020/12/07 00:01:37;;;;;;;29.20;19.52;;;;;;;3.62;78.85;100042.33;1732567;81;21524;-75
2020/12/07 00:04:03;;;;;;;30.70;19.82;;;;;;;3.61;78.90;100058.09;1732252;81;21119;-75
2020/12/07 00:06:29;;;;;;;30.90;19.10;;;;;;;3.60;78.93;100032.10;1740059;81;22325;-75
2020/12/07 00:08:55;;;;;;;26.27;18.80;;;;;;;3.59;78.92;100044.88;1707028;82;21403;-75
2020/12/07 00:11:21;;;;;;;28.70;18.93;;;;;;;3.58;78.96;100042.75;1717624;81;20949;-75
2020/12/07 00:13:46;;;;;;;28.67;19.57;;;;;;;3.58;78.94;100039.34;1716281;81;21006;-75
2020/12/07 00:16:12;;;;;;;28.93;19.27;;;;;;;3.56;78.93;100038.05;1709993;82;21016;-75
2020/12/07 00:18:38;;;;;;;28.32;20.10;;;;;;;3.56;78.96;100039.33;1724031;81;21161;-75
2020/12/07 00:21:09;;;;;;;29.35;18.00;;;;;;;3.55;78.97;100036.77;1717425;81;21592;-75
2020/12/07 00:23:36;;;;;;;33.80;20.72;;;;;;;3.55;78.99;100041.45;1671057;84;21638;-75
2020/12/07 00:26:10;;;;;;;28.15;19.10;;;;;;;3.54;79.00;100029.95;1653650;85;21777;-75
2020/12/07 00:28:37;;;;;;;33.55;19.32;;;;;;;3.53;79.00;100029.09;1685240;84;21194;-75
2020/12/07 00:31:06;;;;;;;31.20;19.40;;;;;;;3.52;79.00;100031.65;1687968;83;21241;-75
2020/12/07 00:33:33;;;;;;;30.95;19.75;;;;;;;3.50;79.01;100038.45;1688353;83;21236;-75
2020/12/07 00:35:59;;;;;;;;;;;;;;;3.47;79.00;100030.35;1692413;83;21128;-75
2020/12/07 00:38:25;;;;;;;28.10;17.82;;;;;;;3.46;79.12;100032.91;1686981;83;20310;-75
2020/12/07 00:40:51;;;;;;;27.58;18.77;;;;;;;3.45;79.10;100034.61;1687821;83;21428;-75
2020/12/07 00:43:17;;;;;;;30.87;19.23;;;;;;;3.44;79.08;100029.48;1671712;84;21144;-75
2020/12/07 00:45:43;;;;;;;31.62;18.62;;;;;;;3.43;79.09;100033.75;1679758;83;21272;-75
2020/12/07 00:48:09;;;;;;;29.67;18.60;;;;;;;3.41;79.11;100035.44;1692394;83;21157;-75
2020/12/07 00:50:36;;;;;;;29.37;19.67;;;;;;;3.41;79.12;100032.03;1687007;83;20893;-75
2020/12/07 00:53:05;;;;;;;33.23;19.82;;;;;;;3.40;79.12;100037.99;1679454;83;21133;-75
2020/12/07 00:55:30;;;;;;;32.10;19.10;;;;;;;3.39;79.15;100028.62;1695159;83;21175;-75
2020/12/07 00:57:55;;;;;;;29.95;19.02;;;;;;;3.39;79.16;100033.73;1681380;83;20925;-75
2020/12/07 01:00:22;;;;;;;29.73;19.13;;;;;;;3.38;79.17;100029.05;1653916;84;20914;-75
2020/12/07 01:02:47;;;;;;;32.45;19.80;;;;;;;3.36;79.16;100028.19;1688248;83;21648;-75
2020/12/07 01:05:13;;;;;;;32.07;19.87;;;;;;;3.36;79.17;100016.69;1686913;84;20968;-75
2020/12/07 01:07:39;;;;;;;29.53;18.83;;;;;;;3.35;79.19;100020.52;1689784;83;21957;-75
2020/12/07 01:10:05;;;;;;;30.53;18.57;;;;;;;3.33;79.19;100016.25;1691567;83;21127;-75
2020/12/07 01:12:31;;;;;;;32.55;19.35;;;;;;;3.32;79.15;100020.08;1676036;85;21149;-75
2020/12/07 01:14:57;;;;;;;26.83;18.73;;;;;;;3.30;79.19;100008.57;1675492;83;21085;-75
2020/12/07 01:17:23;;;;;;;26.93;18.97;;;;;;;3.29;79.21;100015.81;1661311;85;20921;-75
2020/12/07 01:19:49;;;;;;;26.13;17.20;;;;;;;3.29;79.24;100017.09;1667284;84;21916;-75
2020/12/07 01:22:15;;;;;;;29.33;18.80;;;;;;;3.29;79.25;100009.42;1676804;85;21133;-75
2020/12/07 01:24:41;;;;;;;27.93;18.37;;;;;;;3.29;79.23;100011.97;1666822;83;21159;-75
2020/12/07 01:27:07;;;;;;;30.47;18.90;;;;;;;3.27;79.23;100016.22;1673835;84;20942;-75
2020/12/07 01:29:34;;;;;;;27.33;18.50;;;;;;;3.27;79.26;100011.11;1673843;84;21124;-75
2020/12/07 01:32:00;;;;;;;28.05;18.70;;;;;;;3.27;79.29;100007.28;1663640;84;21279;-75
2020/12/07 01:34:26;;;;;;;31.50;19.45;;;;;;;3.27;79.26;100016.22;1675191;84;21143;-75
2020/12/07 01:36:52;;;;;;;29.53;17.67;;;;;;;3.25;79.28;100001.73;1683146;84;21663;-75
2020/12/07 01:39:18;;;;;;;26.40;18.13;;;;;;;3.24;79.30;100000.88;1656850;85;20928;-75
2020/12/07 01:41:44;;;;;;;30.13;19.03;;;;;;;3.23;79.33;100008.12;1675894;85;21054;-75
2020/12/07 01:44:10;;;;;;;30.20;19.67;;;;;;;3.22;79.33;100008.11;1675296;84;21209;-75
2020/12/07 01:46:36;;;;;;;26.73;18.47;;;;;;;3.23;79.35;100005.98;1665961;84;21191;-75
2020/12/07 01:49:03;;;;;;;32.15;17.92;;;;;;;3.22;79.38;100001.72;1666282;84;21181;-75
2020/12/07 01:51:29;;;;;;;31.95;19.87;;;;;;;3.22;79.40;99995.34;1657366;84;28376;-75
2020/12/07 01:53:55;;;;;;;31.43;19.00;;;;;;;3.21;79.42;99991.08;1674427;85;21065;-75
2020/12/07 01:56:27;;;;;;;30.07;18.00;;;;;;;3.19;79.39;99980.85;1624401;85;21622;-75
2020/12/07 01:58:56;;;;;;;27.70;18.05;;;;;;;3.18;79.40;99974.03;1634649;86;21240;-75
2020/12/07 02:01:22;;;;;;;24.72;17.55;;;;;;;3.17;79.40;99970.20;1679089;83;21215;-75
2020/12/07 02:03:48;;;;;;;27.37;18.50;;;;;;;3.16;79.38;99968.06;1676598;84;20961;-75
2020/12/07 02:06:14;;;;;;;28.87;18.73;;;;;;;3.15;79.45;99970.62;1660791;85;21097;-75
2020/12/07 02:08:40;;;;;;;27.90;17.57;;;;;;;3.14;79.46;99964.66;1669932;83;21956;-75
2020/12/07 02:11:06;;;;;;;25.60;16.43;;;;;;;3.13;79.45;99980.83;1650587;85;20966;-75
2020/12/07 02:13:32;;;;;;;28.65;17.37;;;;;;;3.09;79.45;99971.91;1670519;84;21265;-75
2020/12/07 02:15:58;;;;;;;28.02;18.40;;;;;;;3.10;79.47;99978.30;1674300;85;21703;-76
2020/12/07 02:18:24;;;;;;;28.80;17.40;;;;;;;3.09;79.48;99982.12;1670427;83;21042;-75
2020/12/07 02:20:50;;;;;;;25.87;18.63;;;;;;;3.07;79.46;99978.28;1672467;83;22064;-75
2020/12/07 02:23:16;;;;;;;27.48;17.52;;;;;;;3.07;79.54;99990.20;1652468;84;21115;-75
2020/12/07 02:25:43;;;;;;;24.50;16.73;;;;;;;3.06;79.55;99977.00;1672262;85;21210;-75
2020/12/07 02:28:09;;;;;;;26.87;17.80;;;;;;;3.06;79.52;99980.83;1658592;83;28887;-75
2020/12/07 02:30:35;;;;;;;29.45;18.27;;;;;;;3.07;79.57;99978.70;1659670;84;21210;-75
2020/12/07 02:33:01;;;;;;;27.85;17.48;;;;;;;3.06;79.53;99976.57;1647444;85;21542;-75
2020/12/07 02:35:27;;;;;;;23.90;16.65;;;;;;;3.07;79.55;99981.26;1646104;85;21245;-75
2020/12/07 02:37:53;;;;;;;25.63;16.70;;;;;;;3.04;79.57;99976.99;1669553;85;21112;-75
2020/12/07 02:40:19;;;;;;;28.50;18.37;;;;;;;3.04;79.59;99983.38;1656168;84;20934;-75
2020/12/07 02:42:45;;;;;;;27.02;17.70;;;;;;;3.05;79.63;99976.56;1671679;85;21184;-75
2020/12/07 02:45:13;;;;;;;30.60;19.20;;;;;;;3.04;79.61;99983.80;1658405;84;21207;-75
2020/12/07 02:47:41;;;;;;;25.48;17.25;;;;;;;3.05;79.68;99986.78;1665605;84;21633;-75
2020/12/07 02:50:09;;;;;;;29.70;18.15;;;;;;;3.06;79.66;99988.06;1647466;83;22326;-75
2020/12/07 02:52:35;;;;;;;26.07;17.92;;;;;;;3.08;79.69;99977.44;1663343;85;21344;-75
2020/12/07 02:55:07;;;;;;;31.20;17.52;;;;;;;3.10;79.70;99976.16;1705868;81;21170;-75
2020/12/07 02:57:34;;;;;;;28.25;18.80;;;;;;;3.11;79.63;99984.26;1725484;81;21176;-75
2020/12/07 03:00:00;;;;;;;24.55;17.57;;;;;;;3.13;79.70;99965.92;1723121;81;21194;-75
2020/12/07 03:02:25;;;;;;;27.47;18.83;;;;;;;3.13;79.70;99968.05;1727067;82;22454;-75
2020/12/07 03:04:52;;;;;;;30.77;17.95;;;;;;;3.14;79.68;99973.59;1730083;81;20954;-75
2020/12/07 03:07:18;;;;;;;26.60;17.80;;;;;;;3.15;79.71;99961.67;1734027;81;21643;-75
2020/12/07 03:09:44;;;;;;;23.00;16.12;;;;;;;3.16;79.71;99963.37;1726145;81;21569;-75
2020/12/07 03:12:11;;;;;;;25.12;17.35;;;;;;;3.15;79.68;99965.08;1723981;81;21199;-75
2020/12/07 03:14:37;;;;;;;28.40;18.40;;;;;;;3.16;79.70;99971.90;1713831;81;21143;-75
2020/12/07 03:17:03;;;;;;;31.60;19.52;;;;;;;3.17;79.74;99981.27;1725646;81;21551;-75
2020/12/07 03:19:29;;;;;;;26.15;17.90;;;;;;;3.19;79.77;99972.34;1731406;82;21086;-75
2020/12/07 03:21:55;;;;;;;24.60;17.07;;;;;;;3.21;79.77;99977.87;1724146;81;21226;-75
2020/12/07 03:24:21;;;;;;;25.00;17.10;;;;;;;3.22;79.74;99974.90;1729768;81;21112;-75
2020/12/07 03:26:47;;;;;;;23.67;17.63;;;;;;;3.21;79.74;99968.94;1728488;81;20930;-75
2020/12/07 03:29:13;;;;;;;25.15;18.07;;;;;;;3.22;79.76;99977.03;1725037;81;21131;-75
2020/12/07 03:31:40;;;;;;;23.85;17.17;;;;;;;3.24;79.73;99970.65;1726777;81;21111;-75
2020/12/07 03:34:08;;;;;;;26.17;17.17;;;;;;;3.23;79.75;99975.33;1695355;81;21548;-76
2020/12/07 03:36:35;;;;;;;26.77;16.87;;;;;;;3.23;79.73;99966.39;1719953;81;21171;-76
2020/12/07 03:39:02;;;;;;;25.90;18.12;;;;;;;3.23;79.74;99977.88;1724232;82;21516;-76
2020/12/07 03:41:28;;;;;;;26.35;17.82;;;;;;;3.23;79.77;99980.02;1732040;81;21423;-76
2020/12/07 03:43:54;;;;;;;24.70;17.77;;;;;;;3.24;79.74;99982.14;1717565;81;20957;-76
2020/12/07 03:46:20;;;;;;;28.67;18.27;;;;;;;3.24;79.77;99982.14;1731602;81;21157;-76
2020/12/07 03:48:46;;;;;;;26.37;18.17;;;;;;;3.23;79.78;99976.19;1729230;81;21018;-76
2020/12/07 03:51:12;;;;;;;23.97;17.07;;;;;;;3.23;79.76;99977.88;1719882;81;21603;-76
2020/12/07 03:53:39;;;;;;;24.83;16.90;;;;;;;3.23;79.79;99987.68;1728278;82;21033;-76
2020/12/07 03:56:07;;;;;;;23.02;17.30;;;;;;;3.23;79.79;99978.73;1741807;81;21512;-76
2020/12/07 03:58:34;;;;;;;28.55;17.92;;;;;;;3.21;79.78;99985.55;1742647;80;21533;-76
2020/12/07 04:01:00;;;;;;;22.42;16.67;;;;;;;3.22;79.82;99987.25;1732379;80;21146;-76
2020/12/07 04:03:28;;;;;;;25.25;17.02;;;;;;;3.22;79.84;99991.50;1751060;81;21118;-76
2020/12/07 04:08:23;;;;;;;23.92;18.17;;;;;;;3.21;79.83;99986.82;1732904;81;21155;-76
2020/12/07 04:10:49;;;;;;;23.07;16.27;;;;;;;3.20;79.80;99983.84;1751477;81;21416;-76
2020/12/07 04:13:15;;;;;;;24.15;17.48;;;;;;;3.20;79.83;99984.27;1747602;81;21213;-76
2020/12/07 04:15:41;;;;;;;28.00;17.67;;;;;;;3.20;79.83;99984.27;1724467;80;21762;-76
2020/12/07 04:18:07;;;;;;;27.97;17.23;;;;;;;3.21;79.84;99975.75;1733540;80;20976;-76
2020/12/07 04:20:32;;;;;;;24.83;17.60;;;;;;;3.20;79.83;99968.94;1742105;80;20996;-76
2020/12/07 04:22:58;;;;;;;25.40;17.20;;;;;;;3.18;79.84;99961.27;1745089;81;21664;-76
2020/12/07 04:25:25;;;;;;;22.50;17.37;;;;;;;3.17;79.83;99963.81;1743535;81;20960;-76
2020/12/07 04:27:51;;;;;;;24.25;17.05;;;;;;;3.16;79.89;99959.55;1749091;80;21162;-76
2020/12/07 04:30:17;;;;;;;22.95;16.48;;;;;;;3.16;79.86;99968.49;1737588;80;21747;-76
2020/12/07 04:32:43;;;;;;;27.07;18.27;;;;;;;3.14;79.85;99965.08;1718650;81;21186;-76
2020/12/07 04:35:09;;;;;;;26.17;17.40;;;;;;;3.11;79.86;99967.23;1744758;81;22323;-76
2020/12/07 04:37:35;;;;;;;24.20;17.48;;;;;;;3.11;79.87;99963.82;1732816;81;20956;-76
2020/12/07 04:40:01;;;;;;;23.43;16.73;;;;;;;3.11;79.85;99958.71;1742954;80;21014;-76
2020/12/07 04:42:29;;;;;;;22.98;15.95;;;;;;;3.08;79.86;99951.89;1747181;81;21173;-76
2020/12/07 04:44:55;;;;;;;24.25;16.10;;;;;;;3.08;79.84;99948.48;1741424;80;21237;-76
2020/12/07 04:47:24;;;;;;;21.77;15.85;;;;;;;3.07;79.86;99945.08;1717629;82;21169;-76
2020/12/07 04:49:54;;;;;;;24.82;16.52;;;;;;;3.05;79.83;99944.22;1743309;81;21178;-76
2020/12/07 04:52:21;;;;;;;22.40;16.48;;;;;;;3.04;79.88;99948.05;1733194;80;21059;-76
2020/12/07 04:54:49;;;;;;;22.48;15.88;;;;;;;3.04;79.88;99948.05;1740820;81;21208;-76
2020/12/07 04:57:16;;;;;;;21.80;16.00;;;;;;;3.04;79.90;99948.05;1732547;81;21603;-76
2020/12/07 04:59:42;;;;;;;22.50;16.40;;;;;;;3.02;79.88;99948.03;1714674;82;21828;-76
2020/12/07 05:02:10;;;;;;;22.17;15.80;;;;;;;3.02;79.91;99948.03;1731525;81;21172;-76
2020/12/07 05:04:37;;;;;;;22.73;15.90;;;;;;;2.99;79.89;99945.05;1722867;81;21199;-76
2020/12/07 05:07:05;;;;;;;21.55;16.27;;;;;;;2.99;79.87;99942.92;1702399;81;21202;-75
2020/12/07 05:09:32;;;;;;;21.23;15.60;;;;;;;2.97;79.88;99942.06;1723258;81;21182;-75
2020/12/07 05:12:01;;;;;;;22.58;15.35;;;;;;;2.95;79.89;99946.31;1729107;82;21855;-75
2020/12/07 05:14:26;;;;;;;25.57;15.80;;;;;;;2.94;79.89;99956.94;1727826;82;21222;-75
2020/12/07 05:16:52;;;;;;;26.42;16.75;;;;;;;2.94;79.90;99942.05;1726572;81;21742;-75
2020/12/07 05:19:22;;;;;;;24.93;15.40;;;;;;;2.92;79.88;99942.46;1718687;80;21428;-75
2020/12/07 05:21:49;;;;;;;23.05;14.53;;;;;;;2.90;79.87;99963.30;1728518;81;21326;-75
2020/12/07 05:24:17;;;;;;;25.50;15.85;;;;;;;2.90;79.94;99946.28;1706119;81;22227;-75
2020/12/07 05:26:45;;;;;;;23.12;15.40;;;;;;;2.90;79.91;99949.27;1731505;81;21218;-75
2020/12/07 05:29:16;;;;;;;21.97;14.80;;;;;;;2.88;79.89;99942.88;1728492;80;21091;-75
2020/12/07 05:31:39;;;;;;;22.73;14.80;;;;;;;2.87;79.91;99957.77;1727682;81;21097;-75
2020/12/07 05:34:06;;;;;;;21.40;14.28;;;;;;;2.88;79.94;99964.58;1728433;80;21091;-74
2020/12/07 05:36:32;;;;;;;19.67;14.07;;;;;;;2.88;79.91;99961.17;1720754;81;21635;-74
2020/12/07 05:38:58;;;;;;;25.10;14.05;;;;;;;2.87;79.89;99950.10;1733443;80;21107;-74
2020/12/07 05:41:25;;;;;;;18.85;14.55;;;;;;;2.85;79.88;99942.86;1723809;81;21132;-75
2020/12/07 05:43:52;;;;;;;23.42;14.58;;;;;;;2.84;79.88;99946.69;1709524;82;21108;-75
2020/12/07 05:46:20;;;;;;;20.37;13.43;;;;;;;2.83;79.88;99963.70;1741207;81;21082;-75
2020/12/07 05:48:47;;;;;;;21.82;14.50;;;;;;;2.81;79.88;99949.22;1734216;80;21098;-75
2020/12/07 05:51:13;;;;;;;;;;;;;;;2.79;79.87;99951.77;1720523;82;21119;-75
2020/12/07 05:53:41;;;;;;;18.80;14.53;;;;;;;2.79;79.95;99950.91;1727272;81;24925;-75
2020/12/07 05:56:09;;;;;;;20.35;14.65;;;;;;;2.77;79.89;99943.25;1719738;81;21089;-75
2020/12/07 05:58:58;;;;;;;23.73;13.85;;;;;;;2.77;79.89;99948.77;1725982;81;21106;-75
2020/12/07 06:01:26;;;;;;;18.98;13.62;;;;;;;2.74;79.91;99950.03;1727763;81;21414;-75
2020/12/07 06:03:54;;;;;;;22.20;14.43;;;;;;;2.73;79.87;99941.95;1726525;81;21123;-75
2020/12/07 06:06:35;;;;;;;20.30;14.35;;;;;;;2.71;79.90;99943.64;1722401;80;21147;-74
2020/12/07 06:09:07;;;;;;;22.45;14.63;;;;;;;2.70;79.91;99945.76;1729181;81;21093;-74
2020/12/07 06:11:42;;;;;;;18.35;13.22;;;;;;;2.69;79.92;99950.44;1710835;81;21130;-76
2020/12/07 06:14:08;;;;;;;19.50;13.80;;;;;;;2.68;79.92;99961.48;1734730;81;21414;-75
2020/12/07 06:16:36;;;;;;;19.82;13.28;;;;;;;2.68;79.93;99960.21;1709783;81;21191;-75
2020/12/07 06:19:14;;;;;;;20.68;13.50;;;;;;;2.68;79.92;99960.21;1723413;81;21560;-75
2020/12/07 06:21:55;;;;;;;23.15;13.43;;;;;;;2.68;79.94;99969.14;1727489;82;21586;-74
2020/12/07 06:24:22;;;;;;;19.07;13.10;;;;;;;2.66;79.89;99965.31;1732189;81;21119;-74
2020/12/07 06:27:03;;;;;;;22.62;13.85;;;;;;;2.64;79.93;99967.00;1722415;81;21228;-75
2020/12/07 06:29:29;;;;;;;18.65;12.88;;;;;;;2.63;79.94;99976.78;1728435;81;21127;-75
2020/12/07 06:31:59;;;;;;;19.07;13.22;;;;;;;2.63;79.94;99968.70;1730876;81;21127;-75
2020/12/07 06:34:41;;;;;;;18.10;13.22;;;;;;;2.63;79.90;99956.36;1708837;81;21130;-75
2020/12/07 06:37:10;;;;;;;17.55;13.43;;;;;;;2.61;79.92;99957.63;1736040;81;21110;-75
2020/12/07 06:39:46;;;;;;;18.07;13.03;;;;;;;2.61;79.93;99966.98;1725619;82;22119;-75
2020/12/07 06:42:15;;;;;;;18.20;13.78;;;;;;;2.60;79.91;99963.58;1723542;81;21848;-75
2020/12/07 06:44:48;;;;;;;17.35;12.55;;;;;;;2.58;79.89;99969.13;1681806;83;21543;-74
2020/12/07 06:47:20;;;;;;;20.20;13.85;;;;;;;2.56;79.94;99970.81;1679587;85;21151;-74
2020/12/07 06:49:54;;;;;;;20.82;13.22;;;;;;;2.57;79.93;99971.67;1681071;83;21446;-74
2020/12/07 06:52:23;;;;;;;18.92;14.30;;;;;;;2.55;79.94;99967.83;1679180;83;21018;-74
2020/12/07 06:55:05;;;;;;;19.00;12.78;;;;;;;2.56;79.97;99977.19;1680475;83;21214;-74
2020/12/07 06:57:31;;;;;;;21.60;14.28;;;;;;;2.57;79.98;99999.31;1671803;83;21207;-74
2020/12/07 07:00:02;;;;;;;16.50;13.43;;;;;;;2.56;79.94;99978.89;1677176;85;21636;-74
2020/12/07 07:02:29;;;;;;;17.98;13.15;;;;;;;2.55;79.94;99984.42;1615220;86;21136;-74
2020/12/07 07:04:59;;;;;;;20.82;13.58;;;;;;;2.55;79.95;99974.21;1609285;87;21190;-74
2020/12/07 07:07:29;;;;;;;17.25;12.95;;;;;;;2.55;79.95;99975.48;1615547;88;21209;-75
2020/12/07 07:09:56;;;;;;;16.45;12.43;;;;;;;2.55;79.92;99983.14;1607880;87;21146;-74
2020/12/07 07:12:24;;;;;;;20.30;13.85;;;;;;;2.54;79.93;99991.64;1614049;87;21157;-74
2020/12/07 07:14:56;;;;;;;23.73;14.55;;;;;;;2.54;79.95;99996.75;1585581;88;21147;-74
2020/12/07 07:17:26;;;;;;;17.95;12.73;;;;;;;2.54;79.93;99994.62;1615661;87;21229;-75
2020/12/07 07:19:52;;;;;;;20.08;14.00;;;;;;;2.54;79.94;99989.52;1616393;86;21150;-75
2020/12/07 07:22:19;;;;;;;18.00;12.90;;;;;;;2.54;80.00;99989.09;1613418;86;21147;-75
2020/12/07 07:25:04;;;;;;;16.35;13.22;;;;;;;2.56;79.93;99986.55;1612643;87;21189;-75
2020/12/07 07:30:14;;;;;;;16.42;12.90;;;;;;;2.57;79.93;99999.31;1609534;87;21162;-74
2020/12/07 07:32:42;;;;;;;16.48;12.45;;;;;;;2.58;79.93;100000.17;1613469;88;21195;-74
2020/12/07 07:35:10;;;;;;;19.62;12.28;;;;;;;2.58;79.94;100006.55;1610307;86;21159;-74
2020/12/07 07:37:38;;;;;;;19.35;13.03;;;;;;;2.59;79.92;100004.43;1622524;86;21178;-74
2020/12/07 07:40:08;;;;;;;18.40;12.65;;;;;;;2.59;79.94;100006.98;1652640;85;21120;-74
2020/12/07 07:42:42;;;;;;;17.50;12.90;;;;;;;2.59;79.95;100012.94;1675375;84;21237;-75
2020/12/07 07:45:08;;;;;;;23.27;15.23;;;;;;;2.60;79.91;100009.97;1662455;84;21120;-74
2020/12/07 08:16:20;;;;;;;16.43;12.80;;;;;;;2.69;79.90;99994.68;1665970;84;21109;-74
2020/12/07 08:18:49;;;;;;;17.35;12.58;;;;;;;2.73;79.86;99995.55;1668378;84;21550;-73
2020/12/07 08:21:31;;;;;;;17.00;12.60;;;;;;;2.75;79.95;99990.89;1667789;83;21145;-74
2020/12/07 08:24:05;;;;;;;19.10;12.05;;;;;;;2.82;80.00;99995.61;1672824;84;22486;-75
2020/12/07 08:26:26;;;;;;;18.60;13.28;;;;;;;2.86;79.87;100007.12;1685640;83;21149;-75
2020/12/07 08:28:53;;;;;;;15.50;12.00;;;;;;;2.89;79.83;99987.13;1655747;85;21535;-75
2020/12/07 08:31:22;;;;;;;17.07;12.25;;;;;;;2.88;79.81;99979.05;1670683;83;21472;-75
2020/12/07 08:34:07;;;;;;;18.80;12.03;;;;;;;2.89;79.81;99988.41;1665194;85;21116;-75
2020/12/07 08:36:33;;;;;;;16.93;12.93;;;;;;;2.88;79.79;99970.96;1663643;83;21472;-74
2020/12/07 08:39:00;;;;;;;14.58;12.33;;;;;;;2.89;79.82;99987.98;1666236;84;21832;-74
2020/12/07 08:41:31;;;;;;;;;;;;;;;2.90;79.78;99969.69;1672560;84;21109;-74
2020/12/07 08:44:02;;;;;;;20.15;11.95;;;;;;;2.89;79.79;99966.70;1663726;83;20255;-75
2020/12/07 08:46:31;;;;;;;14.83;11.85;;;;;;;2.90;79.80;99969.27;1673647;84;21100;-75
2020/12/07 08:49:00;;;;;;;15.00;11.12;;;;;;;2.93;79.83;99964.17;1667735;83;21184;-75
2020/12/07 08:51:30;;;;;;;17.85;11.35;;;;;;;2.93;79.76;99959.06;1672828;84;21169;-75
2020/12/07 08:53:56;;;;;;;18.80;12.93;;;;;;;2.93;79.73;99951.83;1660903;83;21140;-75
2020/12/07 08:56:23;;;;;;;18.00;11.73;;;;;;;2.91;79.74;99945.44;1680995;82;20997;-75
2020/12/07 08:58:49;;;;;;;20.17;12.23;;;;;;;2.94;79.81;99942.90;1699024;82;21127;-75
2020/12/07 09:01:17;;;;;;;16.10;13.72;;;;;;;2.97;79.82;99948.02;1696069;82;21218;-75
2020/12/07 09:03:45;;;;;;;19.67;13.45;;;;;;;3.03;79.84;99942.08;1698423;82;21139;-74
2020/12/07 09:06:12;;;;;;;18.42;12.73;;;;;;;3.06;79.80;99939.54;1708356;82;21109;-74
2020/12/07 09:08:44;;;;;;;19.90;12.30;;;;;;;3.08;79.75;99944.23;1732734;82;21083;-74
2020/12/07 09:11:13;;;;;;;16.32;11.55;;;;;;;3.11;79.72;99944.66;1706933;82;21107;-74
2020/12/07 09:13:42;;;;;;;17.87;12.55;;;;;;;3.17;79.78;99964.66;1691024;82;21537;-74
2020/12/07 09:16:08;;;;;;;18.23;11.88;;;;;;;3.22;79.81;99954.04;1702911;82;21135;-74
2020/12/07 09:18:35;;;;;;;18.50;11.55;;;;;;;3.28;79.80;99958.31;1694431;82;21631;-74
2020/12/07 09:21:04;;;;;;;13.55;11.22;;;;;;;3.31;79.71;99957.05;1695917;82;21164;-74
2020/12/07 09:23:30;;;;;;;19.40;11.30;;;;;;;3.32;79.71;99954.50;1694431;82;21111;-74
2020/12/07 09:25:56;;;;;;;14.55;10.95;;;;;;;3.35;79.68;99977.07;1710547;82;22331;-74
2020/12/07 09:28:22;;;;;;;15.30;11.15;;;;;;;3.35;79.64;99968.13;1697047;82;22071;-74
2020/12/07 09:30:48;;;;;;;15.10;11.63;;;;;;;3.38;79.68;99967.72;1701000;82;21480;-74
2020/12/07 09:33:14;;;;;;;17.48;11.83;;;;;;;3.39;79.68;99969.42;1709531;82;21761;-74
2020/12/07 09:35:41;;;;;;;12.45;10.82;;;;;;;3.41;79.67;99977.09;1714264;82;21193;-74
2020/12/07 09:38:08;;;;;;;12.73;9.88;;;;;;;3.40;79.62;99982.62;1706618;82;21912;-74
2020/12/07 09:40:34;;;;;;;14.98;10.85;;;;;;;3.41;79.71;99965.17;1713230;82;21660;-74
2020/12/07 09:43:01;;;;;;;18.27;11.45;;;;;;;3.43;79.73;99962.19;1686116;82;26703;-74
2020/12/07 09:45:28;;;;;;;;;;;;;;;3.46;79.72;99964.75;1699626;82;21171;-75
2020/12/07 09:47:54;;;;;;;21.10;11.63;;;;;;;3.50;79.61;99963.06;1702271;82;20604;-75
2020/12/07 09:50:21;;;;;;;14.18;11.00;;;;;;;3.50;79.60;99965.61;1716007;82;21133;-74
2020/12/07 09:52:46;;;;;;;19.87;10.20;;;;;;;3.48;79.64;99947.72;1699861;82;21531;-75
2020/12/07 09:55:12;;;;;;;13.98;10.43;;;;;;;3.51;79.63;99965.62;1713963;82;21587;-75
2020/12/07 09:57:38;;;;;;;17.43;11.33;;;;;;;3.52;79.55;99967.75;1684676;82;21047;-75
2020/12/07 10:00:05;;;;;;;15.80;11.13;;;;;;;3.54;79.64;99955.83;1698362;82;21027;-75
2020/12/07 10:02:32;;;;;;;18.48;11.15;;;;;;;3.57;79.65;99978.84;1691297;82;22284;-75
2020/12/07 10:04:58;;;;;;;17.37;11.60;;;;;;;3.58;79.56;99974.16;1696586;82;21659;-74
2020/12/07 10:07:25;;;;;;;15.48;11.08;;;;;;;3.57;79.58;99977.13;1692499;82;21239;-74
2020/12/07 10:09:51;;;;;;;15.30;10.95;;;;;;;3.58;79.54;99977.98;1703624;82;21199;-74
2020/12/07 10:12:17;;;;;;;16.75;11.05;;;;;;;3.57;79.50;99977.56;1706074;81;21207;-74
2020/12/07 10:14:44;;;;;;;16.82;10.55;;;;;;;3.55;79.46;99976.70;1696928;82;21240;-75
2020/12/07 10:17:10;;;;;;;18.52;11.53;;;;;;;3.53;79.53;99966.90;1703772;82;21480;-75
2020/12/07 10:19:36;;;;;;;15.72;10.68;;;;;;;3.53;79.54;99981.81;1699589;82;21205;-75
2020/12/07 10:22:05;;;;;;;12.20;10.90;;;;;;;3.55;79.55;99977.98;1694439;82;21658;-75
2020/12/07 10:24:33;;;;;;;17.65;11.43;;;;;;;3.56;79.51;99979.69;1706472;82;21132;-75
2020/12/07 10:41:49;;;;;;;17.67;12.15;;;;;;;3.52;79.53;100004.39;1700539;83;21199;-74
2020/12/07 10:44:15;;;;;;;18.30;11.88;;;;;;;3.52;79.54;100000.98;1693125;82;22494;-75
2020/12/07 10:46:40;;;;;;;17.30;11.77;;;;;;;3.52;79.49;99992.88;1689083;82;21050;-75
2020/12/07 10:49:07;;;;;;;21.83;11.17;;;;;;;3.54;79.54;99998.86;1684566;82;21204;-75
2020/12/07 10:51:34;;;;;;;15.85;12.13;;;;;;;3.57;79.60;99994.17;1666687;82;21693;-75
2020/12/07 10:54:01;;;;;;;19.45;12.43;;;;;;;3.64;79.59;99986.91;1699172;82;21238;-75
2020/12/07 10:56:28;;;;;;;17.40;11.53;;;;;;;3.68;79.52;99984.80;1722372;81;22025;-74
2020/12/07 10:58:54;;;;;;;20.40;12.23;;;;;;;3.71;79.52;99983.52;1718561;81;21647;-74
2020/12/07 11:01:20;;;;;;;19.62;13.22;;;;;;;3.73;79.42;99982.25;1718997;81;21189;-74
2020/12/07 11:03:46;;;;;;;20.00;12.23;;;;;;;3.73;79.36;99978.41;1719918;81;21222;-73
2020/12/07 11:06:23;;;;;;;15.25;11.70;;;;;;;3.72;79.39;99984.38;1683702;81;22353;-74
2020/12/07 11:08:53;;;;;;;15.78;11.20;;;;;;;3.74;79.42;99987.36;1723697;82;21264;-74
2020/12/07 11:11:14;;;;;;;19.02;11.50;;;;;;;3.77;79.43;99990.34;1723479;81;21465;-74
2020/12/07 11:13:41;;;;;;;18.37;11.20;;;;;;;3.78;79.39;99990.77;1707531;81;21214;-74
2020/12/07 11:16:13;;;;;;;16.05;11.55;;;;;;;3.77;79.40;99986.09;1717513;81;21250;-74
2020/12/07 11:18:40;;;;;;;20.60;12.90;;;;;;;3.79;79.36;99997.17;1716669;81;21190;-74
2020/12/07 11:21:15;;;;;;;18.40;12.25;;;;;;;3.80;79.39;99995.04;1722273;81;21667;-74
2020/12/07 11:23:43;;;;;;;17.85;12.43;;;;;;;3.82;79.39;99990.78;1725070;81;21128;-74
2020/12/07 11:26:11;;;;;;;16.17;11.73;;;;;;;3.83;79.39;99992.48;1718143;81;22022;-74
2020/12/07 11:28:38;;;;;;;17.42;12.82;;;;;;;3.85;79.38;99997.61;1715530;81;21871;-74
2020/12/07 11:31:08;;;;;;;19.17;12.58;;;;;;;3.85;79.37;99989.51;1725030;81;21664;-74
2020/12/07 11:33:34;;;;;;;19.62;12.13;;;;;;;3.86;79.34;99983.55;1724989;81;21230;-74
2020/12/07 11:36:02;;;;;;;16.70;11.67;;;;;;;3.88;79.37;99989.94;1692843;83;21120;-74
2020/12/07 11:38:34;;;;;;;17.85;12.23;;;;;;;3.87;79.22;99973.74;1712956;81;21741;-74
2020/12/07 11:41:16;;;;;;;16.82;11.93;;;;;;;3.92;79.36;99989.09;1714117;81;21238;-74
2020/12/07 11:46:17;;;;;;;20.10;13.00;;;;;;;3.95;79.31;99987.39;1731777;81;21174;-74
2020/12/07 11:48:43;;;;;;;22.58;13.05;;;;;;;3.97;79.30;99991.23;1723493;81;21869;-74
2020/12/07 11:51:09;;;;;;;16.32;12.45;;;;;;;3.97;79.29;99988.24;1729575;81;21159;-74
2020/12/07 11:53:36;;;;;;;18.15;11.65;;;;;;;3.99;79.33;99990.38;1713321;81;21199;-74
2020/12/07 11:56:02;;;;;;;17.03;12.10;;;;;;;4.03;79.33;99995.50;1723945;81;21139;-74
2020/12/07 11:58:27;;;;;;;16.03;11.40;;;;;;;4.06;79.32;100000.19;1711730;81;22674;-74
2020/12/07 12:00:53;;;;;;;19.93;12.40;;;;;;;4.08;79.23;100000.19;1715234;81;21485;-74
2020/12/07 12:03:19;;;;;;;21.33;12.63;;;;;;;4.10;79.23;99999.77;1683790;81;20996;-76
2020/12/07 12:05:45;;;;;;;18.80;11.33;;;;;;;4.09;79.19;99994.22;1714390;81;21032;-75
2020/12/07 12:08:11;;;;;;;18.30;11.77;;;;;;;4.11;79.24;99992.52;1721091;81;21064;-75
2020/12/07 12:10:37;;;;;;;19.03;12.43;;;;;;;4.13;79.21;99983.98;1722865;81;21561;-75
2020/12/07 12:13:03;;;;;;;18.70;12.83;;;;;;;4.13;79.22;99997.20;1714981;81;21058;-73
2020/12/07 12:15:29;;;;;;;21.30;12.65;;;;;;;4.15;79.21;100002.75;1719226;81;21198;-73
2020/12/07 12:17:55;;;;;;;21.45;12.10;;;;;;;4.15;79.14;100000.62;1705128;81;21225;-75